createdAt,value
2022-12-19T00:01:37.247Z,96.60
2022-12-19T00:04:08.009Z,96.50
2022-12-19T00:06:36.540Z,96.50
2022-12-19T00:09:04.016Z,96.40
2022-12-19T00:11:32.094Z,96.40
2022-12-19T00:14:00.045Z,96.40
2022-12-19T00:16:29.550Z,96.40
2022-12-19T00:18:59.042Z,96.50
2022-12-19T00:21:28.826Z,96.50
2022-12-19T00:23:56.100Z,96.60
2022-12-19T00:26:25.990Z,96.60
2022-12-19T00:28:57.248Z,96.60
2022-12-19T00:31:26.644Z,96.70
2022-12-19T00:33:53.678Z,96.80
2022-12-19T00:36:23.275Z,96.80
2022-12-19T00:38:52.276Z,96.80
2022-12-19T00:41:25.700Z,96.90
2022-12-19T00:43:57.957Z,96.90
2022-12-19T00:46:25.833Z,97.00
2022-12-19T00:48:52.778Z,97.10
2022-12-19T00:51:22.499Z,97.10
2022-12-19T00:53:51.078Z,97.20
2022-12-19T00:56:20.766Z,97.30
2022-12-19T00:58:48.273Z,97.30
2022-12-19T01:01:19.528Z,97.40
2022-12-19T01:04:18.629Z,97.50
2022-12-19T01:06:34.732Z,97.50
2022-12-19T01:09:02.041Z,97.50
2022-12-19T01:11:47.506Z,97.50
2022-12-19T01:14:22.295Z,97.50
2022-12-19T01:16:50.791Z,97.60
2022-12-19T01:19:19.378Z,97.60
2022-12-19T01:21:46.416Z,97.70
2022-12-19T01:24:13.788Z,97.80
2022-12-19T01:26:45.355Z,97.80
2022-12-19T01:29:12.411Z,97.90
2022-12-19T01:31:39.688Z,97.90
2022-12-19T01:34:06.831Z,98.00
2022-12-19T01:36:39.648Z,98.10
2022-12-19T01:39:07.280Z,98.10
2022-12-19T01:41:34.567Z,98.20
2022-12-19T01:44:05.954Z,98.30
2022-12-19T01:46:48.880Z,98.30
2022-12-19T01:49:25.315Z,98.40
2022-12-19T01:51:55.390Z,98.50
2022-12-19T01:54:28.931Z,98.60
2022-12-19T01:56:58.839Z,98.80
2022-12-19T01:59:41.797Z,99.00
2022-12-19T02:02:19.151Z,99.40
2022-12-19T02:04:46.282Z,99.50
2022-12-19T02:07:16.637Z,99.60
2022-12-19T02:09:51.922Z,99.90
2022-12-19T02:12:26.714Z,99.90
2022-12-19T02:14:56.022Z,99.90
2022-12-19T02:17:55.213Z,99.90
2022-12-19T02:21:12.718Z,99.90
2022-12-19T02:24:16.410Z,99.90
2022-12-19T02:27:35.916Z,99.90
2022-12-19T02:30:18.218Z,99.90
2022-12-19T02:33:01.474Z,99.90
2022-12-19T02:35:53.429Z,99.90
2022-12-19T02:38:30.610Z,99.90
2022-12-19T02:41:13.304Z,99.90
2022-12-19T02:43:44.930Z,99.90
2022-12-19T02:46:15.359Z,99.90
2022-12-19T02:48:43.439Z,99.90
2022-12-19T02:51:10.456Z,99.90
2022-12-19T02:53:39.325Z,99.90
2022-12-19T02:56:31.369Z,99.90
2022-12-19T02:58:58.328Z,99.90
2022-12-19T03:01:47.722Z,99.90
2022-12-19T03:04:39.775Z,99.90
2022-12-19T03:07:39.000Z,99.90
2022-12-19T03:10:37.836Z,99.90
2022-12-19T03:13:45.903Z,99.90
2022-12-19T03:16:13.401Z,99.90
2022-12-19T03:18:40.480Z,99.90
2022-12-19T03:21:07.452Z,99.90
2022-12-19T03:23:34.627Z,99.90
2022-12-19T03:26:12.472Z,99.90
2022-12-19T03:29:15.257Z,99.90
2022-12-19T03:31:44.992Z,99.90
2022-12-19T03:34:19.137Z,99.90
2022-12-19T03:36:55.159Z,99.90
2022-12-19T03:39:25.146Z,99.90
2022-12-19T03:42:12.127Z,99.90
2022-12-19T03:44:42.555Z,99.90
2022-12-19T03:47:22.393Z,99.90
2022-12-19T03:49:50.122Z,99.90
2022-12-19T03:52:35.333Z,99.90
2022-12-19T03:55:18.130Z,99.90
2022-12-19T03:57:57.171Z,99.90
2022-12-19T04:00:25.380Z,99.90
2022-12-19T04:02:55.838Z,99.90
2022-12-19T04:05:26.142Z,99.90
2022-12-19T04:07:56.844Z,99.90
2022-12-19T04:10:27.323Z,99.90
2022-12-19T04:13:04.678Z,99.90
2022-12-19T04:15:47.806Z,99.90
2022-12-19T04:18:17.031Z,99.90
2022-12-19T04:20:55.310Z,99.90
2022-12-19T04:23:28.692Z,99.90
2022-12-19T04:26:00.035Z,99.90
2022-12-19T04:28:40.976Z,99.90
2022-12-19T04:31:11.297Z,99.90
2022-12-19T04:33:38.286Z,99.90
2022-12-19T04:36:05.499Z,99.90
2022-12-19T04:38:32.579Z,99.90
2022-12-19T04:40:59.540Z,99.90
2022-12-19T04:43:26.465Z,99.90
2022-12-19T04:45:57.276Z,99.90
2022-12-19T04:48:24.931Z,99.90
2022-12-19T04:50:51.936Z,99.90
2022-12-19T04:53:18.924Z,99.90
2022-12-19T04:55:45.861Z,99.90
2022-12-19T04:58:16.313Z,99.90
2022-12-19T05:00:46.042Z,99.90
2022-12-19T05:03:12.975Z,99.90
2022-12-19T05:05:40.411Z,99.90
2022-12-19T05:08:07.832Z,99.90
2022-12-19T05:10:36.679Z,99.90
2022-12-19T05:13:03.650Z,99.90
2022-12-19T05:15:30.630Z,99.90
2022-12-19T05:17:58.109Z,99.90
2022-12-19T05:20:25.009Z,99.90
2022-12-19T05:22:51.947Z,99.90
2022-12-19T05:25:18.861Z,99.90
2022-12-19T05:27:45.775Z,99.90
2022-12-19T05:30:13.052Z,99.90
2022-12-19T05:32:39.992Z,99.90
2022-12-19T05:35:07.303Z,99.90
2022-12-19T05:37:35.410Z,99.90
2022-12-19T05:40:02.550Z,99.90
2022-12-19T05:42:29.545Z,99.90
2022-12-19T05:44:56.439Z,99.90
2022-12-19T05:47:23.391Z,99.90
2022-12-19T05:49:50.335Z,99.90
2022-12-19T05:52:17.209Z,99.90
2022-12-19T05:54:44.982Z,99.90
2022-12-19T05:57:12.029Z,99.90
2022-12-19T05:59:38.907Z,99.90
2022-12-19T06:02:09.672Z,99.90
2022-12-19T06:04:37.039Z,99.90
2022-12-19T06:07:04.385Z,99.90
2022-12-19T06:09:31.369Z,99.90
2022-12-19T06:11:58.531Z,99.90
2022-12-19T06:14:25.473Z,99.90
2022-12-19T06:16:52.519Z,99.90
2022-12-19T06:19:20.699Z,99.90
2022-12-19T06:21:48.712Z,99.90
2022-12-19T06:24:15.999Z,99.90
2022-12-19T06:26:43.258Z,99.90
2022-12-19T06:29:10.493Z,99.90
2022-12-19T06:31:37.425Z,99.90
2022-12-19T06:34:04.351Z,99.90
2022-12-19T06:36:31.522Z,99.90
2022-12-19T06:38:58.943Z,99.90
2022-12-19T06:41:44.756Z,99.90
2022-12-19T06:44:13.801Z,99.90
2022-12-19T06:46:41.860Z,99.90
2022-12-19T06:49:10.084Z,99.90
2022-12-19T06:51:37.236Z,99.90
2022-12-19T06:54:04.360Z,99.90
2022-12-19T06:56:36.318Z,99.90
2022-12-19T06:59:03.610Z,99.90
2022-12-19T07:01:52.660Z,99.90
2022-12-19T07:04:26.651Z,99.90
2022-12-19T07:06:54.056Z,99.90
2022-12-19T07:09:21.630Z,99.90
2022-12-19T07:11:48.558Z,99.90
2022-12-19T07:14:15.480Z,99.90
2022-12-19T07:16:42.634Z,99.90
2022-12-19T07:19:10.012Z,99.90
2022-12-19T07:21:38.699Z,99.90
2022-12-19T07:24:07.503Z,99.90
2022-12-19T07:26:35.882Z,99.90
2022-12-19T07:29:03.363Z,99.90
2022-12-19T07:31:30.438Z,99.90
2022-12-19T07:33:58.063Z,99.90
2022-12-19T07:36:25.395Z,99.90
2022-12-19T07:38:52.320Z,99.90
2022-12-19T07:41:19.355Z,99.90
2022-12-19T07:43:47.287Z,99.90
2022-12-19T07:46:14.656Z,99.90
2022-12-19T07:48:42.053Z,99.90
2022-12-19T07:51:09.170Z,99.90
2022-12-19T07:53:36.204Z,99.90
2022-12-19T07:56:03.159Z,99.90
2022-12-19T07:58:30.889Z,99.90
2022-12-19T08:01:00.784Z,99.90
2022-12-19T08:03:32.074Z,99.90
2022-12-19T08:06:04.709Z,99.90
2022-12-19T08:08:32.459Z,99.90
2022-12-19T08:11:16.924Z,99.90
2022-12-19T08:13:47.007Z,99.90
2022-12-19T08:16:15.191Z,99.90
2022-12-19T08:18:42.237Z,99.90
2022-12-19T08:21:10.386Z,99.90
2022-12-19T08:23:38.847Z,99.90
2022-12-19T08:26:21.852Z,99.90
2022-12-19T08:28:48.793Z,99.90
2022-12-19T08:31:17.993Z,99.90
2022-12-19T08:33:45.672Z,99.90
2022-12-19T08:36:16.927Z,99.90
2022-12-19T08:38:43.889Z,99.90
2022-12-19T08:41:11.571Z,99.90
2022-12-19T08:43:39.213Z,99.90
2022-12-19T08:46:07.046Z,99.90
2022-12-19T08:48:35.375Z,99.90
2022-12-19T08:51:06.003Z,99.90
2022-12-19T08:53:35.689Z,99.90
2022-12-19T08:56:09.313Z,99.90
2022-12-19T08:58:36.259Z,99.90
2022-12-19T09:01:06.095Z,99.90
2022-12-19T09:03:49.632Z,99.90
2022-12-19T09:06:21.010Z,99.90
2022-12-19T09:08:48.042Z,99.90
2022-12-19T09:11:18.041Z,99.90
2022-12-19T09:13:45.522Z,99.90
2022-12-19T09:16:12.479Z,99.90
2022-12-19T09:18:45.171Z,99.90
2022-12-19T09:21:15.286Z,99.90
2022-12-19T09:23:43.220Z,99.90
2022-12-19T09:26:14.040Z,99.90
2022-12-19T09:28:41.997Z,99.90
2022-12-19T09:31:18.021Z,99.90
2022-12-19T09:33:45.410Z,99.90
2022-12-19T09:36:17.951Z,99.90
2022-12-19T09:38:46.013Z,99.90
2022-12-19T09:41:41.092Z,99.90
2022-12-19T09:44:29.102Z,99.90
2022-12-19T09:47:05.326Z,99.90
2022-12-19T09:49:41.918Z,99.90
2022-12-19T09:52:31.560Z,99.90
2022-12-19T09:55:18.833Z,99.90
2022-12-19T09:58:08.365Z,99.90
2022-12-19T10:00:49.369Z,99.90
2022-12-19T10:03:40.441Z,99.90
2022-12-19T10:07:15.825Z,99.90
2022-12-19T10:10:11.750Z,99.90
2022-12-19T10:12:46.000Z,99.90
2022-12-19T10:14:52.319Z,99.90
2022-12-19T10:17:26.283Z,99.90
2022-12-19T10:19:53.165Z,99.90
2022-12-19T10:22:20.064Z,99.90
2022-12-19T10:25:09.240Z,99.90
2022-12-19T10:28:02.109Z,99.90
2022-12-19T10:30:33.463Z,99.90
2022-12-19T10:33:05.184Z,99.90
2022-12-19T10:35:49.289Z,99.90
2022-12-19T10:38:21.296Z,99.90
2022-12-19T10:40:52.017Z,99.90
2022-12-19T10:44:13.510Z,99.90
2022-12-19T10:46:46.257Z,99.90
2022-12-19T10:49:18.022Z,99.90
2022-12-19T10:52:03.782Z,99.90
2022-12-19T10:54:43.564Z,99.90
2022-12-19T10:57:22.785Z,99.90
2022-12-19T11:00:15.511Z,99.70
2022-12-19T11:02:48.744Z,99.50
2022-12-19T11:05:27.998Z,98.70
2022-12-19T11:08:15.654Z,97.80
2022-12-19T11:11:55.028Z,96.00
2022-12-19T11:19:02.506Z,95.70
2022-12-19T11:22:40.074Z,95.40
2022-12-19T11:29:30.654Z,94.40
2022-12-19T11:29:31.604Z,94.80
2022-12-19T11:29:42.130Z,93.70
2022-12-19T11:29:43.951Z,94.10
2022-12-19T11:34:18.872Z,93.60
2022-12-19T11:36:52.521Z,93.50
2022-12-19T11:39:25.767Z,93.20
2022-12-19T11:42:21.195Z,92.90
2022-12-19T11:44:50.005Z,93.40
2022-12-19T11:47:32.567Z,93.30
2022-12-19T11:50:15.536Z,93.20
2022-12-19T11:53:11.371Z,92.70
2022-12-19T11:55:45.463Z,92.20
2022-12-19T11:58:13.507Z,92.10
2022-12-19T12:00:55.873Z,92.10
2022-12-19T12:03:29.240Z,92.20
2022-12-19T12:05:58.487Z,92.20
2022-12-19T12:10:07.729Z,92.40
2022-12-19T12:18:31.608Z,92.60
2022-12-19T12:28:20.914Z,92.60
2022-12-19T12:31:08.955Z,92.20
2022-12-19T12:31:32.346Z,92.00
2022-12-19T12:31:45.128Z,90.50
2022-12-19T12:31:50.788Z,87.90
2022-12-19T12:32:04.670Z,89.10
2022-12-19T12:35:50.039Z,87.30
2022-12-19T12:39:05.504Z,82.40
2022-12-19T12:42:03.766Z,81.10
2022-12-19T12:44:42.898Z,78.40
2022-12-19T12:47:17.996Z,76.30
2022-12-19T12:49:47.994Z,74.10
2022-12-19T12:52:20.256Z,70.40
2022-12-19T12:54:49.457Z,69.50
2022-12-19T12:57:27.674Z,69.00
2022-12-19T13:00:22.512Z,67.40
2022-12-19T13:03:16.793Z,69.20
2022-12-19T13:05:43.769Z,70.50
2022-12-19T13:08:40.062Z,71.90
2022-12-19T13:11:39.385Z,73.50
2022-12-19T13:14:35.489Z,73.80
2022-12-19T13:17:17.701Z,74.40
2022-12-19T13:19:57.477Z,74.80
2022-12-19T13:22:58.882Z,75.40
2022-12-19T13:25:34.636Z,75.00
2022-12-19T13:28:01.574Z,75.90
2022-12-19T13:30:30.380Z,76.50
2022-12-19T13:33:00.005Z,77.10
2022-12-19T13:38:40.496Z,77.30
2022-12-19T13:39:54.031Z,76.90
2022-12-19T13:41:47.975Z,76.50
2022-12-19T13:44:20.240Z,77.20
2022-12-19T13:46:47.371Z,77.90
2022-12-19T13:49:30.516Z,78.90
2022-12-19T13:52:02.561Z,80.10
2022-12-19T13:54:50.810Z,81.00
2022-12-19T13:57:31.402Z,81.60
2022-12-19T14:00:02.090Z,80.90
2022-12-19T14:02:45.250Z,80.40
2022-12-19T14:05:34.176Z,80.50
2022-12-19T14:08:16.555Z,81.00
2022-12-19T14:11:44.113Z,81.70
2022-12-19T14:14:08.082Z,82.40
2022-12-19T14:16:44.870Z,83.10
2022-12-19T14:19:30.895Z,83.80
2022-12-19T14:22:20.778Z,84.90
2022-12-19T14:25:44.182Z,85.40
2022-12-19T14:28:18.320Z,85.60
2022-12-19T14:30:43.573Z,85.90
2022-12-19T14:33:45.853Z,86.10
2022-12-19T14:36:14.623Z,86.30
2022-12-19T14:39:25.134Z,86.50
2022-12-19T14:42:01.882Z,87.50
2022-12-19T14:52:34.220Z,87.90
2022-12-19T14:54:16.485Z,88.50
2022-12-19T14:54:24.008Z,87.70
2022-12-19T14:54:41.627Z,88.80
2022-12-19T14:59:02.781Z,89.30
2022-12-19T15:01:33.178Z,89.80
2022-12-19T15:04:51.395Z,90.00
2022-12-19T15:07:07.121Z,90.20
2022-12-19T15:11:09.161Z,90.40
2022-12-19T15:14:51.620Z,90.60
2022-12-19T15:16:23.804Z,90.80
2022-12-19T15:18:58.491Z,90.90
2022-12-19T15:21:26.940Z,91.10
2022-12-19T15:23:53.991Z,91.20
2022-12-19T15:26:32.646Z,91.40
2022-12-19T15:29:00.229Z,91.70
2022-12-19T15:31:30.198Z,91.90
2022-12-19T15:34:33.063Z,92.00
2022-12-19T15:36:44.495Z,92.20
2022-12-19T15:39:11.451Z,92.30
2022-12-19T15:41:38.385Z,92.40
2022-12-19T15:44:28.555Z,92.50
2022-12-19T15:46:56.059Z,92.70
2022-12-19T15:49:23.600Z,92.80
2022-12-19T15:51:51.171Z,93.10
2022-12-19T15:57:05.484Z,93.60
2022-12-19T15:59:37.197Z,93.80
2022-12-19T16:02:18.577Z,94.10
2022-12-19T16:04:47.724Z,94.40
2022-12-19T16:07:20.517Z,94.60
2022-12-19T16:09:48.489Z,94.80
2022-12-19T16:12:27.560Z,95.00
2022-12-19T16:14:59.655Z,95.40
2022-12-19T16:17:28.915Z,95.60
2022-12-19T16:19:55.933Z,95.80
2022-12-19T16:22:28.728Z,96.40
2022-12-19T16:24:56.111Z,96.30
2022-12-19T16:27:31.031Z,96.50
2022-12-19T16:30:16.599Z,96.80
2022-12-19T16:32:45.586Z,97.00
2022-12-19T16:35:20.329Z,97.20
2022-12-19T16:37:51.401Z,97.50
2022-12-19T16:40:25.738Z,97.70
2022-12-19T16:43:04.404Z,98.00
2022-12-19T16:45:33.267Z,98.30
2022-12-19T16:48:00.319Z,98.60
2022-12-19T16:50:30.902Z,98.80
2022-12-19T16:52:58.075Z,99.00
2022-12-19T16:55:25.997Z,99.30
2022-12-19T16:57:55.991Z,99.80
2022-12-19T17:00:23.689Z,99.90
2022-12-19T17:02:57.269Z,99.90
2022-12-19T17:05:31.615Z,99.90
2022-12-19T17:07:59.643Z,99.90
2022-12-19T17:10:32.222Z,99.90
2022-12-19T17:13:01.851Z,99.90
2022-12-19T17:15:30.283Z,99.90
2022-12-19T17:17:59.556Z,99.90
2022-12-19T17:20:30.945Z,99.90
2022-12-19T17:22:58.354Z,99.90
2022-12-19T17:25:27.461Z,99.90
2022-12-19T17:27:55.969Z,99.90
2022-12-19T17:30:23.300Z,99.90
2022-12-19T17:32:53.189Z,99.90
2022-12-19T17:35:27.865Z,99.90
2022-12-19T17:37:56.849Z,99.90
2022-12-19T17:40:26.724Z,99.90
2022-12-19T17:42:54.665Z,99.90
2022-12-19T17:45:23.155Z,99.90
2022-12-19T17:47:51.591Z,99.90
2022-12-19T17:50:24.476Z,99.90
2022-12-19T17:52:51.550Z,99.90
2022-12-19T17:55:23.403Z,99.90
2022-12-19T17:57:50.894Z,99.90
2022-12-19T18:00:22.763Z,99.90
2022-12-19T18:02:54.977Z,99.90
2022-12-19T18:05:38.287Z,99.90
2022-12-19T18:08:23.246Z,99.90
2022-12-19T18:10:52.060Z,99.90
2022-12-19T18:13:20.470Z,99.90
2022-12-19T18:15:47.641Z,99.90
2022-12-19T18:18:16.501Z,99.90
2022-12-19T18:20:44.406Z,99.90
2022-12-19T18:23:17.603Z,99.90
2022-12-19T18:25:45.482Z,99.90
2022-12-19T18:28:13.059Z,99.90
2022-12-19T18:30:40.756Z,99.90
2022-12-19T18:33:08.342Z,99.90
2022-12-19T18:35:41.042Z,99.90
2022-12-19T18:38:13.313Z,99.90
2022-12-19T18:40:40.230Z,99.90
2022-12-19T18:43:07.181Z,99.90
2022-12-19T18:45:37.723Z,99.90
2022-12-19T18:48:07.953Z,99.90
2022-12-19T18:50:35.090Z,99.90
2022-12-19T18:53:02.242Z,99.90
2022-12-19T18:55:31.442Z,99.90
2022-12-19T18:57:58.380Z,99.90
2022-12-19T19:00:27.164Z,99.90
2022-12-19T19:03:04.059Z,99.90
2022-12-19T19:05:33.031Z,99.90
2022-12-19T19:08:13.175Z,99.90
2022-12-19T19:10:40.131Z,99.90
2022-12-19T19:13:12.371Z,99.90
2022-12-19T19:16:00.306Z,99.90
2022-12-19T19:18:34.217Z,99.90
2022-12-19T19:21:02.080Z,99.90
2022-12-19T19:23:39.346Z,99.90
2022-12-19T19:26:06.679Z,99.90
2022-12-19T19:28:33.613Z,99.90
2022-12-19T19:31:01.871Z,99.90
2022-12-19T19:33:35.410Z,99.90
2022-12-19T19:36:12.142Z,99.90
2022-12-19T19:38:42.377Z,99.90
2022-12-19T19:41:09.306Z,99.90
2022-12-19T19:43:36.481Z,99.90
2022-12-19T19:46:03.499Z,99.90
2022-12-19T19:48:31.025Z,99.90
2022-12-19T19:50:58.426Z,99.90
2022-12-19T19:53:25.739Z,99.90
2022-12-19T19:56:04.000Z,99.90
2022-12-19T19:58:32.062Z,99.90
2022-12-19T20:00:59.155Z,99.90
2022-12-19T20:03:26.697Z,99.90
2022-12-19T20:06:01.576Z,99.90
2022-12-19T20:08:33.652Z,99.90
2022-12-19T20:11:05.876Z,99.90
2022-12-19T20:13:34.315Z,99.90
2022-12-19T20:16:04.113Z,99.90
2022-12-19T20:18:31.177Z,99.90
2022-12-19T20:20:58.233Z,99.90
2022-12-19T20:23:26.205Z,99.90
2022-12-19T20:25:53.229Z,99.90
2022-12-19T20:28:21.421Z,99.90
2022-12-19T20:30:48.442Z,99.90
2022-12-19T20:33:15.858Z,99.90
2022-12-19T20:35:43.100Z,99.90
2022-12-19T20:38:10.398Z,99.90
2022-12-19T20:40:37.443Z,99.90
2022-12-19T20:43:04.351Z,99.90
2022-12-19T20:45:31.253Z,99.90
2022-12-19T20:47:58.247Z,99.90
2022-12-19T20:50:25.469Z,99.90
2022-12-19T20:52:52.415Z,99.90
2022-12-19T20:55:19.639Z,99.90
2022-12-19T20:57:46.552Z,99.90
2022-12-19T21:00:15.133Z,99.90
2022-12-19T21:03:25.109Z,99.90
2022-12-19T21:05:29.039Z,99.90
2022-12-19T21:07:55.936Z,99.90
2022-12-19T21:10:22.860Z,99.90
2022-12-19T21:12:49.760Z,99.90
2022-12-19T21:15:16.797Z,99.90
2022-12-19T21:17:43.875Z,99.90
2022-12-19T21:20:11.415Z,99.90
2022-12-19T21:22:38.437Z,99.90
2022-12-19T21:25:05.596Z,99.90
2022-12-19T21:27:32.592Z,99.90
2022-12-19T21:30:00.365Z,99.90
2022-12-19T21:32:27.879Z,99.90
2022-12-19T21:34:54.872Z,99.90
2022-12-19T21:37:24.187Z,99.90
2022-12-19T21:39:51.186Z,99.90
2022-12-19T21:42:18.136Z,99.90
2022-12-19T21:44:45.268Z,99.90
2022-12-19T21:47:12.294Z,99.90
2022-12-19T21:49:39.259Z,99.90
2022-12-19T21:52:06.175Z,99.90
2022-12-19T21:54:33.093Z,99.90
2022-12-19T21:57:00.160Z,99.90
2022-12-19T21:59:27.244Z,99.90
2022-12-19T22:01:54.387Z,99.90
2022-12-19T22:04:23.761Z,99.90
2022-12-19T22:06:51.460Z,99.90
2022-12-19T22:09:21.291Z,99.90
2022-12-19T22:11:48.699Z,99.90
2022-12-19T22:14:17.068Z,99.90
2022-12-19T22:16:44.499Z,99.90
2022-12-19T22:19:15.008Z,99.90
2022-12-19T22:21:42.375Z,99.90
2022-12-19T22:24:12.338Z,99.90
2022-12-19T22:26:39.923Z,99.90
2022-12-19T22:29:09.518Z,99.90
2022-12-19T22:31:38.030Z,99.90
2022-12-19T22:34:08.417Z,99.90
2022-12-19T22:36:36.702Z,99.90
2022-12-19T22:39:06.902Z,99.90
2022-12-19T22:41:35.368Z,99.90
2022-12-19T22:44:02.926Z,99.90
2022-12-19T22:46:32.904Z,99.90
2022-12-19T22:49:02.425Z,99.90
2022-12-19T22:51:30.606Z,99.90
2022-12-19T22:53:58.125Z,99.90
2022-12-19T22:56:28.056Z,99.90
2022-12-19T22:58:58.736Z,99.90
2022-12-19T23:01:29.030Z,99.90
2022-12-19T23:03:58.091Z,99.90
2022-12-19T23:06:27.029Z,99.90
2022-12-19T23:08:54.412Z,99.90
2022-12-19T23:11:24.437Z,99.90
2022-12-19T23:13:51.580Z,99.90
2022-12-19T23:16:18.771Z,99.90
2022-12-19T23:18:45.874Z,99.90
2022-12-19T23:21:18.848Z,99.90
2022-12-19T23:23:47.304Z,99.90
2022-12-19T23:26:24.091Z,99.90
2022-12-19T23:28:57.439Z,99.90
2022-12-19T23:31:25.009Z,99.90
2022-12-19T23:33:52.002Z,99.90
2022-12-19T23:36:38.188Z,99.90
2022-12-19T23:39:06.609Z,99.90
2022-12-19T23:41:33.552Z,99.90
2022-12-19T23:44:00.653Z,99.90
2022-12-19T23:46:28.498Z,99.90
2022-12-19T23:48:55.927Z,99.90
2022-12-19T23:51:25.492Z,99.90
2022-12-19T23:53:54.311Z,99.90
2022-12-19T23:56:31.895Z,99.90
2022-12-19T23:58:59.300Z,99.90
